createdAt,value
2018-02-09T00:02:08.318Z,22.93
2018-02-09T00:04:37.173Z,22.40
2018-02-09T00:07:06.058Z,22.50
2018-02-09T00:09:34.914Z,21.87
2018-02-09T00:12:03.790Z,21.60
2018-02-09T00:14:32.735Z,21.50
2018-02-09T00:17:01.627Z,20.70
2018-02-09T00:19:30.491Z,21.83
2018-02-09T00:21:59.382Z,22.13
2018-02-09T00:24:28.256Z,21.23
2018-02-09T00:26:57.115Z,21.30
2018-02-09T00:29:25.990Z,21.40
2018-02-09T00:31:54.850Z,20.43
2018-02-09T00:34:23.728Z,21.77
2018-02-09T00:36:52.589Z,22.37
2018-02-09T00:39:21.462Z,20.63
2018-02-09T00:41:50.317Z,21.37
2018-02-09T00:44:19.194Z,20.40
2018-02-09T00:46:48.050Z,22.10
2018-02-09T00:49:16.935Z,22.70
2018-02-09T00:51:45.794Z,22.30
2018-02-09T00:54:14.670Z,21.33
2018-02-09T00:56:43.534Z,22.10
2018-02-09T00:59:12.403Z,22.33
2018-02-09T01:01:41.278Z,20.90
2018-02-09T01:04:10.167Z,22.77
2018-02-09T01:06:39.022Z,21.50
2018-02-09T01:09:07.900Z,21.77
2018-02-09T01:11:36.761Z,23.80
2018-02-09T01:14:05.640Z,24.33
2018-02-09T01:16:34.494Z,22.20
2018-02-09T01:19:03.474Z,24.53
2018-02-09T01:21:32.346Z,23.87
2018-02-09T01:24:01.208Z,21.70
2018-02-09T01:26:30.096Z,22.97
2018-02-09T01:28:58.958Z,23.47
2018-02-09T01:31:27.844Z,24.50
2018-02-09T01:33:56.720Z,22.10
2018-02-09T01:36:25.603Z,22.63
2018-02-09T01:38:54.454Z,22.93
2018-02-09T01:41:23.344Z,23.43
2018-02-09T01:43:52.210Z,23.07
2018-02-09T01:46:21.167Z,21.20
2018-02-09T01:48:50.143Z,21.23
2018-02-09T01:51:19.024Z,20.97
2018-02-09T01:53:47.892Z,22.17
2018-02-09T01:56:16.775Z,20.67
2018-02-09T01:58:45.643Z,22.47
2018-02-09T02:01:14.528Z,21.43
2018-02-09T02:03:43.396Z,22.40
2018-02-09T02:06:12.291Z,23.03
2018-02-09T02:08:41.157Z,22.37
2018-02-09T02:11:10.048Z,22.00
2018-02-09T02:13:38.915Z,22.57
2018-02-09T02:16:07.791Z,21.53
2018-02-09T02:18:36.658Z,24.73
2018-02-09T02:21:05.536Z,24.43
2018-02-09T02:23:34.403Z,22.37
2018-02-09T02:26:03.287Z,21.10
2018-02-09T02:28:32.151Z,21.27
2018-02-09T02:31:01.043Z,20.90
2018-02-09T02:33:29.908Z,22.53
2018-02-09T02:35:58.775Z,22.60
2018-02-09T02:38:27.660Z,21.80
2018-02-09T02:40:56.532Z,20.17
2018-02-09T02:43:25.412Z,22.30
2018-02-09T02:45:54.279Z,20.93
2018-02-09T02:48:23.178Z,20.37
2018-02-09T02:50:52.040Z,22.23
2018-02-09T02:53:20.928Z,19.87
2018-02-09T02:55:49.792Z,21.23
2018-02-09T02:58:18.671Z,21.57
2018-02-09T03:00:47.540Z,21.03
2018-02-09T03:03:16.415Z,20.73
2018-02-09T03:05:45.284Z,20.53
2018-02-09T03:08:14.163Z,21.20
2018-02-09T03:10:43.028Z,23.80
2018-02-09T03:13:11.904Z,21.63
2018-02-09T03:15:40.778Z,20.13
2018-02-09T03:18:09.691Z,21.13
2018-02-09T03:20:38.548Z,20.50
2018-02-09T03:23:07.416Z,21.30
2018-02-09T03:25:36.300Z,21.53
2018-02-09T03:28:05.160Z,21.30
2018-02-09T03:30:34.041Z,19.90
2018-02-09T03:33:02.932Z,20.73
2018-02-09T03:35:31.812Z,20.43
2018-02-09T03:38:00.676Z,21.67
2018-02-09T03:40:29.556Z,21.90
2018-02-09T03:42:58.423Z,20.17
2018-02-09T03:45:27.304Z,22.10
2018-02-09T03:47:56.172Z,20.37
2018-02-09T03:50:25.047Z,21.83
2018-02-09T03:52:53.915Z,21.70
2018-02-09T03:55:22.787Z,21.90
2018-02-09T03:57:51.649Z,19.87
2018-02-09T04:00:20.532Z,20.57
2018-02-09T04:02:49.387Z,21.40
2018-02-09T04:05:18.283Z,21.67
2018-02-09T04:07:47.143Z,20.80
2018-02-09T04:10:16.004Z,19.83
2018-02-09T04:12:44.883Z,20.17
2018-02-09T04:15:13.753Z,20.40
2018-02-09T04:17:42.631Z,19.80
2018-02-09T04:20:11.504Z,20.27
2018-02-09T04:22:40.392Z,21.00
2018-02-09T04:25:09.259Z,18.57
2018-02-09T04:27:38.143Z,21.70
2018-02-09T04:30:07.010Z,23.17
2018-02-09T04:32:35.911Z,20.53
2018-02-09T04:35:04.776Z,18.33
2018-02-09T04:37:33.667Z,22.97
2018-02-09T04:40:02.536Z,20.17
2018-02-09T04:42:31.428Z,21.30
2018-02-09T04:45:00.297Z,19.43
2018-02-09T04:47:29.175Z,19.40
2018-02-09T04:49:58.038Z,21.07
2018-02-09T04:52:26.915Z,20.57
2018-02-09T04:54:55.787Z,22.37
2018-02-09T04:57:24.677Z,19.37
2018-02-09T04:59:53.535Z,19.53
2018-02-09T05:02:22.420Z,19.70
2018-02-09T05:04:51.275Z,19.97
2018-02-09T05:07:20.152Z,18.27
2018-02-09T05:09:49.020Z,20.20
2018-02-09T05:12:17.899Z,18.23
2018-02-09T05:14:46.759Z,19.00
2018-02-09T05:17:15.621Z,18.10
2018-02-09T05:19:44.504Z,20.00
2018-02-09T05:22:13.368Z,18.23
2018-02-09T05:24:42.247Z,18.47
2018-02-09T05:27:11.110Z,18.47
2018-02-09T05:29:39.992Z,19.73
2018-02-09T05:32:08.856Z,17.60
2018-02-09T05:34:37.749Z,16.70
2018-02-09T05:37:06.667Z,17.63
2018-02-09T05:39:35.549Z,17.47
2018-02-09T05:42:04.420Z,17.83
2018-02-09T05:44:33.353Z,17.30
2018-02-09T05:47:02.208Z,15.53
2018-02-09T05:49:31.096Z,16.87
2018-02-09T05:51:59.959Z,18.13
2018-02-09T05:54:28.888Z,16.90
2018-02-09T05:56:57.751Z,15.87
2018-02-09T05:59:26.639Z,16.70
2018-02-09T06:01:55.582Z,17.43
2018-02-09T06:04:24.576Z,17.80
2018-02-09T06:06:53.443Z,17.10
2018-02-09T06:09:22.308Z,17.00
2018-02-09T06:11:51.184Z,17.90
2018-02-09T06:14:20.051Z,17.70
2018-02-09T06:16:48.931Z,18.30
2018-02-09T06:19:17.799Z,17.67
2018-02-09T06:21:46.692Z,16.30
2018-02-09T06:24:15.564Z,18.07
2018-02-09T06:26:44.449Z,16.03
2018-02-09T06:29:13.312Z,16.73
2018-02-09T06:31:42.198Z,14.97
2018-02-09T06:34:11.075Z,16.13
2018-02-09T06:36:39.983Z,17.87
2018-02-09T06:39:08.848Z,16.07
2018-02-09T06:41:37.732Z,14.77
2018-02-09T06:44:06.596Z,17.43
2018-02-09T06:46:35.479Z,17.80
2018-02-09T06:49:04.347Z,15.47
2018-02-09T06:51:33.228Z,17.83
2018-02-09T06:54:02.093Z,16.23
2018-02-09T06:56:30.971Z,15.37
2018-02-09T06:58:59.840Z,17.07
2018-02-09T07:01:28.727Z,15.70
2018-02-09T07:03:57.595Z,16.93
2018-02-09T07:06:26.480Z,18.53
2018-02-09T07:08:55.347Z,16.53
2018-02-09T07:11:24.248Z,14.57
2018-02-09T07:13:53.114Z,15.60
2018-02-09T07:16:21.983Z,16.87
2018-02-09T07:18:50.864Z,15.40
2018-02-09T07:21:19.719Z,14.40
2018-02-09T07:23:48.598Z,15.03
2018-02-09T07:26:17.471Z,15.50
2018-02-09T07:28:46.362Z,14.90
2018-02-09T07:31:15.231Z,16.07
2018-02-09T07:33:44.108Z,16.60
2018-02-09T07:36:13.014Z,15.90
2018-02-09T07:38:41.876Z,15.70
2018-02-09T07:41:10.744Z,15.47
2018-02-09T07:43:39.620Z,14.63
2018-02-09T07:46:08.509Z,15.37
2018-02-09T07:48:37.400Z,15.80
2018-02-09T07:51:06.259Z,16.63
2018-02-09T07:53:35.143Z,15.87
2018-02-09T07:56:04.008Z,14.10
2018-02-09T07:58:32.891Z,14.93
2018-02-09T08:01:01.757Z,16.33
2018-02-09T08:03:30.644Z,15.00
2018-02-09T08:05:59.536Z,15.37
2018-02-09T08:08:28.408Z,14.97
2018-02-09T08:10:57.297Z,14.47
2018-02-09T08:13:26.155Z,14.30
2018-02-09T08:15:55.037Z,13.50
2018-02-09T08:18:23.897Z,15.03
2018-02-09T08:20:52.775Z,14.37
2018-02-09T08:23:21.639Z,14.60
2018-02-09T08:25:50.524Z,14.17
2018-02-09T08:28:19.399Z,14.17
2018-02-09T08:30:48.277Z,15.27
2018-02-09T08:33:17.143Z,14.20
2018-02-09T08:35:46.031Z,15.87
2018-02-09T08:38:14.894Z,15.20
2018-02-09T08:40:43.780Z,14.70
2018-02-09T08:43:12.649Z,14.60
2018-02-09T08:45:41.527Z,15.97
2018-02-09T08:48:10.395Z,15.10
2018-02-09T08:50:39.338Z,15.13
2018-02-09T08:53:08.191Z,13.90
2018-02-09T08:55:37.060Z,14.23
2018-02-09T08:58:05.942Z,15.87
2018-02-09T09:00:34.803Z,14.00
2018-02-09T09:03:03.688Z,15.80
2018-02-09T09:05:32.548Z,14.40
2018-02-09T09:08:01.430Z,13.77
2018-02-09T09:10:30.315Z,14.20
2018-02-09T09:12:59.214Z,15.10
2018-02-09T09:15:28.067Z,14.83
2018-02-09T09:17:56.948Z,14.70
2018-02-09T09:20:25.807Z,14.07
2018-02-09T09:22:54.684Z,13.57
2018-02-09T09:25:23.539Z,15.40
2018-02-09T09:27:52.420Z,15.87
2018-02-09T09:30:21.287Z,14.33
2018-02-09T09:32:50.297Z,13.70
2018-02-09T09:35:19.159Z,15.30
2018-02-09T09:37:48.035Z,15.37
2018-02-09T09:40:16.902Z,15.07
2018-02-09T09:42:45.778Z,14.80
2018-02-09T09:45:14.644Z,13.07
2018-02-09T09:47:43.543Z,14.50
2018-02-09T09:50:12.407Z,15.77
2018-02-09T09:52:41.285Z,13.67
2018-02-09T09:55:10.201Z,15.30
2018-02-09T09:57:39.072Z,14.83
2018-02-09T10:00:07.955Z,15.37
2018-02-09T10:02:39.539Z,13.80
2018-02-09T10:05:08.423Z,14.97
2018-02-09T10:07:37.290Z,15.97
2018-02-09T10:10:06.179Z,15.63
2018-02-09T10:12:35.041Z,15.53
2018-02-09T10:15:03.915Z,15.17
2018-02-09T10:17:32.784Z,15.70
2018-02-09T10:20:01.656Z,15.10
2018-02-09T10:22:30.520Z,15.47
2018-02-09T10:24:59.399Z,14.97
2018-02-09T10:27:28.264Z,16.77
2018-02-09T10:29:57.139Z,15.53
2018-02-09T10:32:26.003Z,15.60
2018-02-09T10:34:54.887Z,15.80
2018-02-09T10:37:23.747Z,15.57
2018-02-09T10:39:52.632Z,15.23
2018-02-09T10:42:21.496Z,15.63
2018-02-09T10:44:50.375Z,14.73
2018-02-09T10:47:19.242Z,14.73
2018-02-09T10:49:48.115Z,15.43
2018-02-09T10:52:16.980Z,15.80
2018-02-09T10:54:45.884Z,17.17
2018-02-09T10:57:14.756Z,14.10
2018-02-09T10:59:43.623Z,16.63
2018-02-09T11:02:12.509Z,15.07
2018-02-09T11:04:41.385Z,14.80
2018-02-09T11:07:10.267Z,15.77
2018-02-09T11:09:39.139Z,16.93
2018-02-09T11:12:08.799Z,14.83
2018-02-09T11:14:37.681Z,16.50
2018-02-09T11:17:06.571Z,15.53
2018-02-09T11:19:35.443Z,15.10
2018-02-09T11:22:04.324Z,15.50
2018-02-09T11:24:33.188Z,17.50
2018-02-09T11:27:02.078Z,14.93
2018-02-09T11:29:30.940Z,16.67
2018-02-09T11:31:59.820Z,15.90
2018-02-09T11:34:28.687Z,15.80
2018-02-09T11:36:57.567Z,14.73
2018-02-09T11:39:26.426Z,13.90
2018-02-09T11:41:55.312Z,15.63
2018-02-09T11:44:24.181Z,16.40
2018-02-09T11:46:53.076Z,15.10
2018-02-09T11:49:21.948Z,14.83
2018-02-09T11:51:50.823Z,16.33
2018-02-09T11:54:19.680Z,15.93
2018-02-09T11:56:48.564Z,15.40
2018-02-09T11:59:17.448Z,15.30
2018-02-09T12:01:46.315Z,13.77
2018-02-09T12:04:15.207Z,14.67
2018-02-09T12:06:44.067Z,15.70
2018-02-09T12:09:12.952Z,15.90
2018-02-09T12:11:41.856Z,14.83
2018-02-09T12:14:10.727Z,16.77
2018-02-09T12:16:39.591Z,14.80
2018-02-09T12:19:08.468Z,16.67
2018-02-09T12:21:37.336Z,15.83
2018-02-09T12:24:06.217Z,14.70
2018-02-09T12:26:35.079Z,15.60
2018-02-09T12:29:03.981Z,16.33
2018-02-09T12:31:32.839Z,15.80
2018-02-09T12:34:01.715Z,15.07
2018-02-09T12:36:30.623Z,15.57
2018-02-09T12:38:59.504Z,15.00
2018-02-09T12:41:28.372Z,15.23
2018-02-09T12:43:57.255Z,18.05
2018-02-09T12:46:26.119Z,15.00
2018-02-09T12:48:55.003Z,14.40
2018-02-09T12:51:23.908Z,15.80
2018-02-09T12:53:52.796Z,15.00
2018-02-09T12:56:21.655Z,15.30
2018-02-09T12:58:50.588Z,13.17
2018-02-09T13:01:19.454Z,15.00
2018-02-09T13:03:48.319Z,14.80
2018-02-09T13:06:17.215Z,15.23
2018-02-09T13:08:46.079Z,14.93
2018-02-09T13:11:15.792Z,15.13
2018-02-09T13:13:44.656Z,14.70
2018-02-09T13:16:13.523Z,14.63
2018-02-09T13:18:45.203Z,15.67
2018-02-09T13:21:14.072Z,14.83
2018-02-09T13:23:48.868Z,15.10
2018-02-09T13:26:17.732Z,14.33
2018-02-09T13:28:52.556Z,14.70
2018-02-09T13:31:21.419Z,15.57
2018-02-09T13:33:50.300Z,14.80
2018-02-09T13:36:24.924Z,14.03
2018-02-09T13:38:53.811Z,14.40
2018-02-09T13:41:22.692Z,14.13
2018-02-09T13:43:51.576Z,15.70
2018-02-09T13:46:20.440Z,14.70
2018-02-09T13:48:49.328Z,14.50
2018-02-09T13:51:18.205Z,16.47
2018-02-09T13:53:47.098Z,14.43
2018-02-09T13:56:15.967Z,15.53
2018-02-09T13:58:44.843Z,15.37
2018-02-09T14:01:13.716Z,16.97
2018-02-09T14:03:42.604Z,15.10
2018-02-09T14:06:11.476Z,16.03
2018-02-09T14:08:40.339Z,14.67
2018-02-09T14:11:09.215Z,15.50
2018-02-09T14:13:38.077Z,14.93
2018-02-09T14:16:06.961Z,15.43
2018-02-09T14:18:35.823Z,16.07
2018-02-09T14:21:04.708Z,15.03
2018-02-09T14:23:33.576Z,15.83
2018-02-09T14:26:02.455Z,15.63
2018-02-09T14:28:31.311Z,15.00
2018-02-09T14:31:00.191Z,16.53
2018-02-09T14:33:29.062Z,15.83
2018-02-09T14:35:57.947Z,16.80
2018-02-09T14:38:26.807Z,16.10
2018-02-09T14:40:55.688Z,15.43
2018-02-09T14:43:24.555Z,14.80
2018-02-09T14:45:53.436Z,15.40
2018-02-09T14:48:22.305Z,14.93
2018-02-09T14:50:51.198Z,14.90
2018-02-09T14:53:20.072Z,15.70
2018-02-09T14:55:48.944Z,16.00
2018-02-09T14:58:17.831Z,13.40
2018-02-09T15:00:46.695Z,16.50
2018-02-09T15:03:15.574Z,16.03
2018-02-09T15:05:44.443Z,16.00
2018-02-09T15:08:13.328Z,14.20
2018-02-09T15:10:42.204Z,15.07
2018-02-09T15:13:11.094Z,16.93
2018-02-09T15:15:39.990Z,17.37
2018-02-09T15:18:08.861Z,14.63
2018-02-09T15:20:37.715Z,15.17
2018-02-09T15:23:06.613Z,14.70
2018-02-09T15:25:35.492Z,15.97
2018-02-09T15:28:04.356Z,16.30
2018-02-09T15:30:33.256Z,16.20
2018-02-09T15:33:02.124Z,14.77
2018-02-09T15:35:31.007Z,15.47
2018-02-09T15:37:59.883Z,15.50
2018-02-09T15:40:28.779Z,16.43
2018-02-09T15:42:57.663Z,15.43
2018-02-09T15:45:26.561Z,15.30
2018-02-09T15:47:55.436Z,15.43
2018-02-09T15:50:24.320Z,16.30
2018-02-09T15:52:53.196Z,16.67
2018-02-09T15:55:22.075Z,15.07
2018-02-09T15:57:50.939Z,15.40
2018-02-09T16:00:19.824Z,14.67
2018-02-09T16:02:48.700Z,14.83
2018-02-09T16:05:17.594Z,15.07
2018-02-09T16:07:46.467Z,17.77
2018-02-09T16:10:15.353Z,16.50
2018-02-09T16:12:44.222Z,14.67
2018-02-09T16:15:13.127Z,15.17
2018-02-09T16:17:41.996Z,14.87
2018-02-09T16:20:10.863Z,15.90
2018-02-09T16:22:39.744Z,17.20
2018-02-09T16:25:08.613Z,16.43
2018-02-09T16:27:37.487Z,16.50
2018-02-09T16:30:06.348Z,15.90
2018-02-09T16:32:35.228Z,14.03
2018-02-09T16:35:04.092Z,16.67
2018-02-09T16:37:32.980Z,15.77
2018-02-09T16:40:01.849Z,15.77
2018-02-09T16:42:30.728Z,15.00
2018-02-09T16:44:59.600Z,15.73
2018-02-09T16:47:28.486Z,15.50
2018-02-09T16:49:57.348Z,17.40
2018-02-09T16:52:26.211Z,17.00
2018-02-09T16:54:55.096Z,15.20
2018-02-09T16:57:23.967Z,17.80
2018-02-09T16:59:52.859Z,14.67
2018-02-09T17:02:21.719Z,15.87
2018-02-09T17:04:50.639Z,16.57
2018-02-09T17:07:19.499Z,16.43
2018-02-09T17:09:48.379Z,16.40
2018-02-09T17:12:17.239Z,15.77
2018-02-09T17:14:46.128Z,16.50
2018-02-09T17:17:15.000Z,15.87
2018-02-09T17:19:43.883Z,17.13
2018-02-09T17:22:12.743Z,17.30
2018-02-09T17:24:41.627Z,17.23
2018-02-09T17:27:10.487Z,16.20
2018-02-09T17:29:39.355Z,15.03
2018-02-09T17:32:08.241Z,15.50
2018-02-09T17:34:37.119Z,16.30
2018-02-09T17:37:06.012Z,16.07
2018-02-09T17:39:34.884Z,17.10
2018-02-09T17:42:03.759Z,15.10
2018-02-09T17:44:32.627Z,16.77
2018-02-09T17:47:01.508Z,16.87
2018-02-09T17:49:30.497Z,18.13
2018-02-09T17:51:59.392Z,16.37
2018-02-09T17:54:28.260Z,18.50
2018-02-09T17:56:57.146Z,14.70
2018-02-09T17:59:26.016Z,16.17
2018-02-09T18:01:54.904Z,16.10
2018-02-09T18:04:23.768Z,17.40
2018-02-09T18:06:52.660Z,16.97
2018-02-09T18:09:21.524Z,19.33
2018-02-09T18:11:50.427Z,17.47
2018-02-09T18:14:19.292Z,17.17
2018-02-09T18:16:48.194Z,17.43
2018-02-09T18:19:17.063Z,19.07
2018-02-09T18:21:45.943Z,16.93
2018-02-09T18:24:14.808Z,16.20
2018-02-09T18:26:43.700Z,16.37
2018-02-09T18:29:12.570Z,17.90
2018-02-09T18:31:41.435Z,16.17
2018-02-09T18:34:10.371Z,16.70
2018-02-09T18:36:39.249Z,16.53
2018-02-09T18:39:08.136Z,17.43
2018-02-09T18:41:37.000Z,18.33
2018-02-09T18:44:05.892Z,19.87
2018-02-09T18:46:34.757Z,17.57
2018-02-09T18:49:03.638Z,18.10
2018-02-09T18:51:32.498Z,17.23
2018-02-09T18:54:01.384Z,17.77
2018-02-09T18:56:30.238Z,19.07
2018-02-09T18:58:59.115Z,17.83
2018-02-09T19:01:27.975Z,18.47
2018-02-09T19:03:56.908Z,19.30
2018-02-09T19:06:25.744Z,18.87
2018-02-09T19:08:54.622Z,19.70
2018-02-09T19:11:23.479Z,20.03
2018-02-09T19:13:52.351Z,21.03
2018-02-09T19:16:21.206Z,20.50
2018-02-09T19:18:50.131Z,21.53
2018-02-09T19:21:18.991Z,21.27
2018-02-09T19:23:47.927Z,20.67
2018-02-09T19:26:16.816Z,21.70
2018-02-09T19:28:45.677Z,22.30
2018-02-09T19:31:14.550Z,23.47
2018-02-09T19:33:43.414Z,20.97
2018-02-09T19:36:12.290Z,20.90
2018-02-09T19:38:41.143Z,22.10
2018-02-09T19:41:10.086Z,22.20
2018-02-09T19:43:38.966Z,23.07
2018-02-09T19:46:07.888Z,22.60
2018-02-09T19:48:36.757Z,22.90
2018-02-09T19:51:05.638Z,25.27
2018-02-09T19:53:34.503Z,24.03
2018-02-09T19:56:03.358Z,23.40
2018-02-09T19:58:32.252Z,23.70
2018-02-09T20:01:01.158Z,25.33
2018-02-09T20:03:30.060Z,25.43
2018-02-09T20:05:58.925Z,25.23
2018-02-09T20:08:27.799Z,26.90
2018-02-09T20:10:56.659Z,25.37
2018-02-09T20:13:25.535Z,25.13
2018-02-09T20:15:54.394Z,26.33
2018-02-09T20:18:23.272Z,26.93
2018-02-09T20:20:52.156Z,27.30
2018-02-09T20:23:21.040Z,25.90
2018-02-09T20:25:49.899Z,26.03
2018-02-09T20:28:18.774Z,26.73
2018-02-09T20:30:47.638Z,25.53
2018-02-09T20:33:16.532Z,26.40
2018-02-09T20:35:45.387Z,26.47
2018-02-09T20:38:14.242Z,28.20
2018-02-09T20:40:43.113Z,26.97
2018-02-09T20:43:11.982Z,28.60
2018-02-09T20:45:40.877Z,27.60
2018-02-09T20:48:09.734Z,29.40
2018-02-09T20:50:38.651Z,30.77
2018-02-09T20:53:07.524Z,28.67
2018-02-09T20:55:36.421Z,29.03
2018-02-09T20:58:05.282Z,29.10
2018-02-09T21:00:34.158Z,28.83
2018-02-09T21:03:03.012Z,30.57
2018-02-09T21:05:31.887Z,30.03
2018-02-09T21:08:00.767Z,30.80
2018-02-09T21:10:30.032Z,30.37
2018-02-09T21:12:58.882Z,32.83
2018-02-09T21:15:27.759Z,32.60
2018-02-09T21:17:56.618Z,34.10
2018-02-09T21:20:25.538Z,34.43
2018-02-09T21:22:54.412Z,33.33
2018-02-09T21:25:23.306Z,32.83
2018-02-09T21:27:52.178Z,32.70
2018-02-09T21:30:21.045Z,34.60
2018-02-09T21:32:49.959Z,34.90
2018-02-09T21:35:18.810Z,33.90
2018-02-09T21:37:47.691Z,35.20
2018-02-09T21:40:16.546Z,36.73
2018-02-09T21:42:45.427Z,37.67
2018-02-09T21:45:14.293Z,34.87
2018-02-09T21:47:43.166Z,38.93
2018-02-09T21:50:12.026Z,34.97
2018-02-09T21:52:40.908Z,36.17
2018-02-09T21:55:09.762Z,35.47
2018-02-09T21:57:38.650Z,36.93
2018-02-09T22:00:07.515Z,33.97
2018-02-09T22:02:36.397Z,36.27
2018-02-09T22:05:05.254Z,37.00
2018-02-09T22:07:34.130Z,35.17
2018-02-09T22:10:02.994Z,36.67
2018-02-09T22:12:31.870Z,38.30
2018-02-09T22:15:00.726Z,39.87
2018-02-09T22:17:29.594Z,36.67
2018-02-09T22:19:58.453Z,37.40
2018-02-09T22:22:27.331Z,34.83
2018-02-09T22:24:56.224Z,36.87
2018-02-09T22:27:25.078Z,37.80
2018-02-09T22:29:53.950Z,37.47
2018-02-09T22:32:22.811Z,37.63
2018-02-09T22:34:51.686Z,37.93
2018-02-09T22:37:20.553Z,37.83
2018-02-09T22:39:49.440Z,38.40
2018-02-09T22:42:18.308Z,36.40
2018-02-09T22:44:47.196Z,36.27
2018-02-09T22:47:16.064Z,36.80
2018-02-09T22:49:44.938Z,37.60
2018-02-09T22:52:13.794Z,40.80
2018-02-09T22:54:42.673Z,38.30
2018-02-09T22:57:11.540Z,40.23
2018-02-09T22:59:40.424Z,35.80
2018-02-09T23:02:09.291Z,38.30
2018-02-09T23:04:38.170Z,37.53
2018-02-09T23:07:07.027Z,39.57
2018-02-09T23:09:35.926Z,38.73
2018-02-09T23:12:04.778Z,38.57
2018-02-09T23:14:33.642Z,38.93
2018-02-09T23:17:02.528Z,37.03
2018-02-09T23:19:31.382Z,38.83
2018-02-09T23:22:00.268Z,38.93
2018-02-09T23:24:29.136Z,37.93
2018-02-09T23:26:58.022Z,38.97
2018-02-09T23:29:26.885Z,39.07
2018-02-09T23:31:55.766Z,36.03
2018-02-09T23:34:24.626Z,37.83
2018-02-09T23:36:53.498Z,39.67
2018-02-09T23:39:22.360Z,40.70
2018-02-09T23:41:51.245Z,38.00
2018-02-09T23:44:20.102Z,38.37
2018-02-09T23:46:48.986Z,35.87
2018-02-09T23:49:17.873Z,36.40
2018-02-09T23:51:46.743Z,37.97
2018-02-09T23:54:15.634Z,37.17
2018-02-09T23:56:44.491Z,37.77
2018-02-09T23:59:13.362Z,38.73
